createdAt,value
2023-01-11T00:00:40.702Z,3.60
2023-01-11T00:03:08.959Z,3.60
2023-01-11T00:05:40.847Z,3.60
2023-01-11T00:08:09.752Z,3.60
2023-01-11T00:10:38.133Z,3.70
2023-01-11T00:13:07.670Z,3.70
2023-01-11T00:15:38.121Z,3.70
2023-01-11T00:18:06.294Z,3.80
2023-01-11T00:20:34.458Z,3.70
2023-01-11T00:23:02.778Z,3.80
2023-01-11T00:25:30.843Z,3.80
2023-01-11T00:27:58.827Z,3.80
2023-01-11T00:30:28.316Z,3.80
2023-01-11T00:32:57.210Z,3.90
2023-01-11T00:35:25.636Z,3.90
2023-01-11T00:37:53.691Z,3.90
2023-01-11T00:40:23.925Z,3.90
2023-01-11T00:43:09.164Z,4.00
2023-01-11T00:45:55.856Z,4.00
2023-01-11T00:48:23.967Z,4.00
2023-01-11T00:50:54.689Z,4.10
2023-01-11T00:53:23.011Z,4.10
2023-01-11T00:55:50.999Z,4.10
2023-01-11T00:58:19.001Z,4.10
2023-01-11T01:00:48.526Z,4.20
2023-01-11T01:03:16.875Z,4.20
2023-01-11T01:05:44.835Z,4.20
2023-01-11T01:08:12.898Z,4.20
2023-01-11T01:10:41.010Z,4.30
2023-01-11T01:13:29.281Z,4.30
2023-01-11T01:15:59.707Z,4.30
2023-01-11T01:18:27.816Z,4.30
2023-01-11T01:20:55.858Z,4.40
2023-01-11T01:23:23.900Z,4.30
2023-01-11T01:25:51.864Z,4.40
2023-01-11T01:28:22.176Z,4.30
2023-01-11T01:30:52.107Z,4.40
2023-01-11T01:33:21.587Z,4.40
2023-01-11T01:35:49.520Z,4.40
2023-01-11T01:38:17.604Z,4.40
2023-01-11T01:40:47.418Z,4.50
2023-01-11T01:43:18.346Z,4.50
2023-01-11T01:45:49.862Z,4.50
2023-01-11T01:48:23.305Z,4.60
2023-01-11T01:50:54.668Z,4.60
2023-01-11T01:53:29.310Z,4.60
2023-01-11T01:56:01.301Z,4.60
2023-01-11T01:58:33.447Z,4.70
2023-01-11T02:01:21.931Z,4.60
2023-01-11T02:03:53.420Z,4.60
2023-01-11T02:06:23.864Z,4.70
2023-01-11T02:08:58.047Z,4.60
2023-01-11T02:11:32.624Z,4.60
2023-01-11T02:14:03.963Z,4.70
2023-01-11T02:16:31.986Z,4.60
2023-01-11T02:19:02.288Z,4.60
2023-01-11T02:21:40.459Z,4.60
2023-01-11T02:24:26.343Z,4.70
2023-01-11T02:27:22.498Z,4.70
2023-01-11T02:30:03.355Z,4.70
2023-01-11T02:32:41.080Z,4.70
2023-01-11T02:35:18.278Z,4.80
2023-01-11T02:38:00.350Z,4.70
2023-01-11T02:40:37.999Z,4.80
2023-01-11T02:43:46.873Z,4.80
2023-01-11T02:46:24.039Z,4.80
2023-01-11T02:49:00.008Z,4.80
2023-01-11T02:51:33.512Z,4.80
2023-01-11T02:54:05.415Z,4.80
2023-01-11T02:56:37.362Z,4.80
2023-01-11T02:59:08.769Z,4.80
2023-01-11T03:01:46.995Z,4.80
2023-01-11T03:04:26.154Z,4.80
2023-01-11T03:07:00.243Z,4.80
2023-01-11T03:09:34.567Z,4.80
2023-01-11T03:12:35.306Z,4.90
2023-01-11T03:15:13.206Z,4.90
2023-01-11T03:17:51.920Z,4.90
2023-01-11T03:20:25.287Z,4.90
2023-01-11T03:23:05.633Z,4.90
2023-01-11T03:25:42.677Z,4.90
2023-01-11T03:28:18.035Z,4.80
2023-01-11T03:30:51.654Z,4.80
2023-01-11T03:33:27.672Z,4.90
2023-01-11T03:36:02.211Z,5.00
2023-01-11T03:38:36.527Z,5.10
2023-01-11T03:41:08.574Z,5.00
2023-01-11T03:43:40.095Z,5.20
2023-01-11T03:46:13.272Z,5.10
2023-01-11T03:48:48.492Z,5.10
2023-01-11T03:51:21.553Z,5.10
2023-01-11T03:53:51.437Z,5.00
2023-01-11T03:56:24.688Z,5.00
2023-01-11T03:58:52.806Z,5.00
2023-01-11T04:01:21.016Z,4.90
2023-01-11T04:03:50.429Z,4.90
2023-01-11T04:06:19.479Z,4.90
2023-01-11T04:08:47.441Z,5.00
2023-01-11T04:11:15.465Z,5.00
2023-01-11T04:13:43.711Z,5.20
2023-01-11T04:16:11.771Z,5.10
2023-01-11T04:18:39.634Z,5.30
2023-01-11T04:21:08.911Z,5.20
2023-01-11T04:23:36.904Z,5.30
2023-01-11T04:26:05.039Z,5.30
2023-01-11T04:28:33.111Z,5.40
2023-01-11T04:31:01.111Z,5.50
2023-01-11T04:33:29.132Z,5.60
2023-01-11T04:35:57.081Z,5.60
2023-01-11T04:38:27.249Z,5.60
2023-01-11T04:41:15.181Z,5.50
2023-01-11T04:43:42.175Z,5.50
2023-01-11T04:46:11.421Z,5.60
2023-01-11T04:48:40.396Z,5.50
2023-01-11T04:51:08.513Z,5.50
2023-01-11T04:53:37.971Z,5.60
2023-01-11T04:56:07.441Z,5.70
2023-01-11T04:58:38.106Z,5.70
2023-01-11T05:01:10.302Z,5.70
2023-01-11T05:03:38.289Z,5.60
2023-01-11T05:06:07.149Z,5.60
2023-01-11T05:08:36.948Z,5.70
2023-01-11T05:11:07.216Z,5.70
2023-01-11T05:13:44.951Z,5.70
2023-01-11T05:16:14.742Z,5.70
2023-01-11T05:18:43.745Z,5.80
2023-01-11T05:21:13.801Z,5.80
2023-01-11T05:23:43.957Z,5.70
2023-01-11T05:26:13.849Z,5.70
2023-01-11T05:28:41.703Z,5.70
2023-01-11T05:31:09.674Z,5.60
2023-01-11T05:33:37.639Z,5.60
2023-01-11T05:36:08.164Z,5.50
2023-01-11T05:38:36.387Z,5.40
2023-01-11T05:41:07.503Z,5.40
2023-01-11T05:43:57.355Z,5.40
2023-01-11T05:46:25.120Z,5.40
2023-01-11T05:48:53.444Z,5.50
2023-01-11T05:51:21.436Z,5.50
2023-01-11T05:53:49.631Z,5.60
2023-01-11T05:56:18.893Z,5.60
2023-01-11T05:58:49.269Z,5.50
2023-01-11T06:01:18.112Z,5.50
2023-01-11T06:03:46.635Z,5.50
2023-01-11T06:06:15.466Z,5.50
2023-01-11T06:08:43.609Z,5.60
2023-01-11T06:11:11.785Z,5.60
2023-01-11T06:13:41.091Z,5.60
2023-01-11T06:16:11.876Z,5.50
2023-01-11T06:18:41.392Z,5.60
2023-01-11T06:21:10.290Z,5.60
2023-01-11T06:23:39.712Z,5.70
2023-01-11T06:26:10.225Z,5.60
2023-01-11T06:28:40.263Z,5.70
2023-01-11T06:31:09.105Z,5.70
2023-01-11T06:33:37.899Z,5.70
2023-01-11T06:36:10.142Z,5.70
2023-01-11T06:38:38.670Z,5.70
2023-01-11T06:41:08.654Z,5.70
2023-01-11T06:43:37.664Z,5.60
2023-01-11T06:46:10.465Z,5.60
2023-01-11T06:48:38.544Z,5.70
2023-01-11T06:51:06.675Z,5.70
2023-01-11T06:53:34.578Z,5.90
2023-01-11T06:56:02.733Z,6.00
2023-01-11T06:58:30.775Z,6.00
2023-01-11T07:01:00.033Z,5.90
2023-01-11T07:03:29.742Z,5.90
2023-01-11T07:05:58.435Z,5.90
2023-01-11T07:08:26.997Z,5.80
2023-01-11T07:10:55.658Z,5.80
2023-01-11T07:13:23.980Z,5.90
2023-01-11T07:15:54.065Z,5.90
2023-01-11T07:18:22.168Z,5.90
2023-01-11T07:20:52.063Z,5.90
2023-01-11T07:23:20.572Z,6.00
2023-01-11T07:25:49.629Z,6.00
2023-01-11T07:28:17.587Z,6.00
2023-01-11T07:30:57.460Z,6.00
2023-01-11T07:33:26.664Z,6.00
2023-01-11T07:35:56.442Z,6.10
2023-01-11T07:38:24.480Z,6.20
2023-01-11T07:40:52.527Z,6.10
2023-01-11T07:43:23.171Z,6.30
2023-01-11T07:45:53.196Z,6.40
2023-01-11T07:48:25.306Z,6.40
2023-01-11T07:50:55.405Z,6.40
2023-01-11T07:53:25.892Z,6.50
2023-01-11T07:55:55.838Z,6.50
2023-01-11T07:58:23.898Z,6.50
2023-01-11T08:00:51.981Z,6.50
2023-01-11T08:03:20.080Z,6.50
2023-01-11T08:05:51.228Z,6.50
2023-01-11T08:08:20.970Z,6.50
2023-01-11T08:11:09.869Z,6.50
2023-01-11T08:13:55.198Z,6.50
2023-01-11T08:16:23.210Z,6.50
2023-01-11T08:18:51.323Z,6.50
2023-01-11T08:21:21.195Z,6.40
2023-01-11T08:23:50.536Z,6.40
2023-01-11T08:26:18.488Z,6.40
2023-01-11T08:28:47.324Z,6.40
2023-01-11T08:31:15.328Z,6.50
2023-01-11T08:33:43.353Z,6.40
2023-01-11T08:36:13.495Z,6.40
2023-01-11T08:38:41.762Z,6.50
2023-01-11T08:41:11.688Z,6.70
2023-01-11T08:43:39.950Z,6.70
2023-01-11T08:46:07.989Z,6.90
2023-01-11T08:48:36.453Z,7.00
2023-01-11T08:51:04.514Z,7.10
2023-01-11T08:53:32.416Z,7.10
2023-01-11T08:56:00.548Z,7.00
2023-01-11T08:58:30.226Z,7.00
2023-01-11T09:00:59.125Z,7.00
2023-01-11T09:03:28.659Z,7.00
2023-01-11T09:05:57.459Z,7.00
2023-01-11T09:08:26.273Z,7.00
2023-01-11T09:10:56.280Z,7.00
2023-01-11T09:13:24.292Z,7.10
2023-01-11T09:15:56.804Z,7.10
2023-01-11T09:18:26.873Z,7.20
2023-01-11T09:20:55.005Z,7.20
2023-01-11T09:23:22.919Z,7.30
2023-01-11T09:25:50.779Z,7.30
2023-01-11T09:28:18.699Z,7.30
2023-01-11T09:30:46.647Z,7.30
2023-01-11T09:33:16.014Z,7.30
2023-01-11T09:35:46.247Z,7.40
2023-01-11T09:38:15.107Z,7.40
2023-01-11T09:40:54.286Z,7.40
2023-01-11T09:43:27.358Z,7.50
2023-01-11T09:45:58.654Z,7.50
2023-01-11T09:48:37.005Z,7.60
2023-01-11T09:51:06.147Z,7.60
2023-01-11T09:53:38.177Z,7.60
2023-01-11T09:56:11.947Z,7.60
2023-01-11T09:58:53.721Z,7.60
2023-01-11T10:01:29.943Z,7.70
2023-01-11T10:04:36.697Z,7.70
2023-01-11T10:07:36.109Z,7.80
2023-01-11T10:18:28.738Z,8.20
2023-01-11T10:19:33.369Z,8.30
2023-01-11T10:22:07.784Z,8.30
2023-01-11T10:24:42.233Z,8.30
2023-01-11T10:27:20.365Z,8.40
2023-01-11T10:29:59.503Z,8.40
2023-01-11T10:32:45.794Z,8.50
2023-01-11T10:35:46.258Z,8.50
2023-01-11T10:38:40.851Z,8.40
2023-01-11T10:41:26.508Z,8.50
2023-01-11T10:44:11.395Z,8.60
2023-01-11T10:46:43.436Z,8.50
2023-01-11T10:49:39.522Z,8.40
2023-01-11T10:52:19.009Z,8.40
2023-01-11T10:54:51.112Z,8.60
2023-01-11T10:57:31.003Z,8.60
2023-01-11T11:00:13.417Z,8.60
2023-01-11T11:02:59.406Z,8.50
2023-01-11T11:05:36.276Z,8.30
2023-01-11T11:08:13.806Z,8.20
2023-01-11T11:10:52.296Z,8.20
2023-01-11T11:13:28.012Z,8.30
2023-01-11T11:16:03.494Z,8.30
2023-01-11T11:18:31.624Z,8.40
2023-01-11T11:21:05.795Z,8.50
2023-01-11T11:23:34.552Z,8.40
2023-01-11T11:26:05.546Z,8.30
2023-01-11T11:28:35.079Z,8.30
2023-01-11T11:31:06.251Z,8.30
2023-01-11T11:33:37.053Z,8.40
2023-01-11T11:36:07.916Z,8.30
2023-01-11T11:38:37.623Z,8.20
2023-01-11T11:41:08.632Z,8.00
2023-01-11T11:43:39.078Z,8.10
2023-01-11T11:46:22.600Z,8.10
2023-01-11T11:49:13.949Z,8.10
2023-01-11T11:51:43.770Z,8.10
2023-01-11T11:54:20.439Z,8.10
2023-01-11T11:56:49.027Z,8.10
2023-01-11T11:59:21.007Z,8.30
2023-01-11T12:01:55.637Z,8.30
2023-01-11T12:04:25.340Z,8.20
2023-01-11T12:07:06.131Z,8.30
2023-01-11T12:09:35.777Z,8.30
2023-01-11T12:12:05.133Z,8.30
2023-01-11T12:14:36.415Z,8.40
2023-01-11T12:17:22.876Z,8.50
2023-01-11T12:19:50.915Z,8.40
2023-01-11T12:22:20.757Z,8.30
2023-01-11T12:24:49.784Z,8.50
2023-01-11T12:27:30.796Z,8.50
2023-01-11T12:30:13.054Z,8.40
2023-01-11T12:33:00.642Z,8.40
2023-01-11T12:35:37.064Z,8.30
2023-01-11T12:38:30.601Z,8.30
2023-01-11T12:41:17.305Z,8.20
2023-01-11T12:43:56.432Z,8.20
2023-01-11T12:46:40.776Z,8.30
2023-01-11T12:49:37.407Z,8.40
2023-01-11T12:52:41.706Z,8.40
2023-01-11T12:55:34.430Z,8.40
2023-01-11T12:58:09.032Z,8.40
2023-01-11T13:01:21.535Z,8.40
2023-01-11T13:04:24.065Z,8.30
2023-01-11T13:07:01.142Z,8.30
2023-01-11T13:09:40.482Z,8.20
2023-01-11T13:12:18.336Z,8.10
2023-01-11T13:14:57.531Z,8.20
2023-01-11T13:17:33.116Z,8.20
2023-01-11T13:20:23.480Z,8.20
2023-01-11T13:22:55.179Z,8.30
2023-01-11T13:25:27.177Z,8.20
2023-01-11T13:27:58.091Z,8.30
2023-01-11T13:30:27.032Z,8.30
2023-01-11T13:32:59.096Z,8.10
2023-01-11T13:35:36.655Z,8.00
2023-01-11T13:38:12.476Z,8.00
2023-01-11T13:40:46.073Z,8.00
2023-01-11T13:43:21.071Z,7.90
2023-01-11T13:45:53.231Z,7.80
2023-01-11T13:48:27.431Z,7.80
2023-01-11T13:51:04.545Z,7.70
2023-01-11T13:53:37.920Z,7.60
2023-01-11T13:56:15.834Z,7.50
2023-01-11T13:58:52.547Z,7.40
2023-01-11T14:01:28.274Z,7.40
2023-01-11T14:04:01.982Z,7.40
2023-01-11T14:06:42.921Z,7.40
2023-01-11T14:09:45.808Z,7.40
2023-01-11T14:12:27.151Z,7.40
2023-01-11T14:15:19.705Z,7.40
2023-01-11T14:18:15.025Z,7.40
2023-01-11T14:20:50.159Z,7.30
2023-01-11T14:23:21.461Z,7.30
2023-01-11T14:26:20.060Z,7.20
2023-01-11T14:28:59.277Z,7.30
2023-01-11T14:31:48.403Z,7.20
2023-01-11T14:35:00.265Z,7.20
2023-01-11T14:37:51.990Z,7.20
2023-01-11T14:40:51.157Z,7.20
2023-01-11T14:43:36.414Z,7.20
2023-01-11T14:46:35.561Z,7.20
2023-01-11T14:49:15.281Z,7.20
2023-01-11T14:51:53.996Z,7.10
2023-01-11T14:54:26.039Z,7.10
2023-01-11T14:56:56.876Z,7.10
2023-01-11T14:59:35.781Z,7.10
2023-01-11T15:02:26.794Z,7.20
2023-01-11T15:05:06.488Z,7.10
2023-01-11T15:07:37.515Z,7.00
2023-01-11T15:10:28.166Z,7.00
2023-01-11T15:12:59.229Z,7.00
2023-01-11T15:15:51.212Z,7.10
2023-01-11T15:18:23.995Z,7.00
2023-01-11T15:20:53.903Z,7.00
2023-01-11T15:23:22.487Z,7.00
2023-01-11T15:26:00.995Z,7.00
2023-01-11T15:28:43.772Z,7.00
2023-01-11T15:31:26.519Z,7.00
2023-01-11T15:33:56.111Z,7.00
2023-01-11T15:36:25.316Z,7.00
2023-01-11T15:39:00.807Z,7.00
2023-01-11T15:42:03.198Z,7.00
2023-01-11T15:44:55.424Z,7.10
2023-01-11T15:47:39.695Z,7.20
2023-01-11T15:50:35.795Z,7.30
2023-01-11T15:53:50.102Z,7.40
2023-01-11T15:56:38.431Z,7.40
2023-01-11T15:59:27.077Z,7.50
2023-01-11T16:02:41.013Z,7.50
2023-01-11T16:05:19.551Z,7.50
2023-01-11T16:07:56.795Z,7.60
2023-01-11T16:10:49.044Z,7.60
2023-01-11T16:13:32.166Z,7.60
2023-01-11T16:16:11.665Z,7.60
2023-01-11T16:18:44.350Z,7.60
2023-01-11T16:21:19.061Z,7.60
2023-01-11T16:23:47.433Z,7.60
2023-01-11T16:26:20.905Z,7.60
2023-01-11T16:28:51.685Z,7.60
2023-01-11T16:31:20.030Z,7.60
2023-01-11T16:33:49.880Z,7.60
2023-01-11T16:36:21.950Z,7.60
2023-01-11T16:39:02.777Z,7.60
2023-01-11T16:41:37.827Z,7.60
2023-01-11T16:44:09.607Z,7.60
2023-01-11T16:47:16.929Z,7.50
2023-01-11T16:49:49.027Z,7.50
2023-01-11T16:52:47.767Z,7.50
2023-01-11T16:55:25.921Z,7.50
2023-01-11T16:57:58.007Z,7.50
2023-01-11T17:00:32.610Z,7.40
2023-01-11T17:03:17.541Z,7.40
2023-01-11T17:05:58.301Z,7.50
2023-01-11T17:08:30.634Z,7.50
2023-01-11T17:11:02.535Z,7.40
2023-01-11T17:13:55.980Z,7.50
2023-01-11T17:16:27.513Z,7.50
2023-01-11T17:18:56.012Z,7.50
2023-01-11T17:21:26.998Z,7.50
2023-01-11T17:24:00.707Z,7.40
2023-01-11T17:26:31.902Z,7.40
2023-01-11T17:29:01.563Z,7.40
2023-01-11T17:31:32.187Z,7.50
2023-01-11T17:34:08.245Z,7.40
2023-01-11T17:36:37.377Z,7.50
2023-01-11T17:39:07.381Z,7.40
2023-01-11T17:41:53.241Z,7.40
2023-01-11T17:44:41.679Z,7.40
2023-01-11T17:47:12.376Z,7.40
2023-01-11T17:49:40.598Z,7.40
2023-01-11T17:52:17.991Z,7.40
2023-01-11T17:54:47.579Z,7.30
2023-01-11T17:57:15.611Z,7.30
2023-01-11T17:59:43.760Z,7.30
2023-01-11T18:02:14.998Z,7.30
2023-01-11T18:04:44.275Z,7.30
2023-01-11T18:07:18.557Z,7.30
2023-01-11T18:09:49.491Z,7.30
2023-01-11T18:12:21.474Z,7.30
2023-01-11T18:14:52.569Z,7.30
2023-01-11T18:17:36.209Z,7.30
2023-01-11T18:20:32.973Z,7.30
2023-01-11T18:23:05.193Z,7.30
2023-01-11T18:25:35.911Z,7.20
2023-01-11T18:28:28.298Z,7.20
2023-01-11T18:31:00.043Z,7.20
2023-01-11T18:33:30.785Z,7.20
2023-01-11T18:36:00.819Z,7.10
2023-01-11T18:38:31.466Z,7.20
2023-01-11T18:41:25.007Z,7.20
2023-01-11T18:43:53.722Z,7.20
2023-01-11T18:46:22.183Z,7.20
2023-01-11T18:48:50.278Z,7.20
2023-01-11T18:51:21.111Z,7.20
2023-01-11T18:53:49.069Z,7.20
2023-01-11T18:56:18.773Z,7.20
2023-01-11T18:58:46.754Z,7.10
2023-01-11T19:01:15.022Z,7.10
2023-01-11T19:03:45.867Z,7.10
2023-01-11T19:06:15.091Z,7.10
2023-01-11T19:08:43.170Z,7.10
2023-01-11T19:11:13.859Z,7.00
2023-01-11T19:13:45.641Z,7.00
2023-01-11T19:16:14.477Z,7.00
2023-01-11T19:18:42.545Z,7.00
2023-01-11T19:21:11.863Z,7.00
2023-01-11T19:23:39.886Z,7.00
2023-01-11T19:26:08.382Z,7.00
2023-01-11T19:28:36.456Z,7.00
2023-01-11T19:31:11.185Z,7.00
2023-01-11T19:33:40.176Z,7.00
2023-01-11T19:36:08.972Z,7.00
2023-01-11T19:38:38.524Z,6.90
2023-01-11T19:41:08.463Z,7.00
2023-01-11T19:43:36.788Z,6.90
2023-01-11T19:46:04.952Z,7.00
2023-01-11T19:48:34.532Z,7.00
2023-01-11T19:51:03.150Z,7.00
2023-01-11T19:53:31.561Z,7.00
2023-01-11T19:56:02.141Z,6.90
2023-01-11T19:58:30.492Z,7.00
2023-01-11T20:00:58.672Z,7.00
2023-01-11T20:03:27.005Z,7.00
2023-01-11T20:06:07.659Z,7.00
2023-01-11T20:08:41.271Z,7.00
2023-01-11T20:11:11.557Z,6.90
2023-01-11T20:13:40.511Z,6.90
2023-01-11T20:16:10.751Z,6.90
2023-01-11T20:18:39.099Z,6.80
2023-01-11T20:21:10.309Z,6.80
2023-01-11T20:23:38.599Z,6.80
2023-01-11T20:26:14.690Z,6.80
2023-01-11T20:28:43.386Z,6.80
2023-01-11T20:31:11.832Z,6.80
2023-01-11T20:33:39.866Z,6.80
2023-01-11T20:36:14.404Z,6.80
2023-01-11T20:38:42.968Z,6.70
2023-01-11T20:41:11.717Z,6.70
2023-01-11T20:43:40.833Z,6.70
2023-01-11T20:46:09.285Z,6.70
2023-01-11T20:48:37.253Z,6.70
2023-01-11T20:51:06.016Z,6.70
2023-01-11T20:53:35.445Z,6.70
2023-01-11T20:56:05.770Z,6.70
2023-01-11T20:58:34.383Z,6.60
2023-01-11T21:01:05.085Z,6.70
2023-01-11T21:03:33.297Z,6.70
2023-01-11T21:06:03.722Z,6.70
2023-01-11T21:08:31.848Z,6.70
2023-01-11T21:11:06.300Z,6.70
2023-01-11T21:13:34.735Z,6.70
2023-01-11T21:16:08.497Z,6.70
2023-01-11T21:18:36.779Z,6.70
2023-01-11T21:21:05.266Z,6.70
2023-01-11T21:23:33.292Z,6.70
2023-01-11T21:26:01.314Z,6.70
2023-01-11T21:28:30.728Z,6.70
2023-01-11T21:31:04.279Z,6.60
2023-01-11T21:33:32.383Z,6.60
2023-01-11T21:36:04.033Z,6.60
2023-01-11T21:38:32.823Z,6.60
2023-01-11T21:41:08.461Z,6.60
2023-01-11T21:43:38.720Z,6.60
2023-01-11T21:46:07.666Z,6.60
2023-01-11T21:48:35.573Z,6.60
2023-01-11T21:51:03.892Z,6.50
2023-01-11T21:53:33.263Z,6.60
2023-01-11T21:56:03.538Z,6.60
2023-01-11T21:58:31.533Z,6.60
2023-01-11T22:01:01.196Z,6.50
2023-01-11T22:03:29.992Z,6.40
2023-01-11T22:06:01.807Z,6.40
2023-01-11T22:08:30.170Z,6.40
2023-01-11T22:10:59.277Z,6.30
2023-01-11T22:13:29.182Z,6.40
2023-01-11T22:16:02.152Z,6.40
2023-01-11T22:18:31.011Z,6.30
2023-01-11T22:21:05.806Z,6.40
2023-01-11T22:23:33.906Z,6.30
2023-01-11T22:26:04.973Z,6.30
2023-01-11T22:28:33.134Z,6.30
2023-01-11T22:31:06.878Z,6.30
2023-01-11T22:33:37.243Z,6.30
2023-01-11T22:36:05.842Z,6.30
2023-01-11T22:38:33.971Z,6.30
2023-01-11T22:41:03.115Z,6.30
2023-01-11T22:43:31.127Z,6.30
2023-01-11T22:45:59.631Z,6.30
2023-01-11T22:48:31.371Z,6.40
2023-01-11T22:50:59.479Z,6.30
2023-01-11T22:53:27.422Z,6.30
2023-01-11T22:55:55.385Z,6.40
2023-01-11T22:58:23.327Z,6.40
2023-01-11T23:00:51.345Z,6.40
2023-01-11T23:03:19.466Z,6.50
2023-01-11T23:05:48.894Z,6.50
2023-01-11T23:08:17.317Z,6.50
2023-01-11T23:10:45.209Z,6.40
2023-01-11T23:13:30.659Z,6.40
2023-01-11T23:15:58.600Z,6.30
2023-01-11T23:18:26.603Z,6.30
2023-01-11T23:20:55.998Z,6.30
2023-01-11T23:23:23.987Z,6.20
2023-01-11T23:25:55.143Z,6.20
2023-01-11T23:28:23.107Z,6.30
2023-01-11T23:30:51.140Z,6.30
2023-01-11T23:33:19.079Z,6.40
2023-01-11T23:35:58.170Z,6.30
2023-01-11T23:38:26.527Z,6.30
2023-01-11T23:41:11.933Z,6.30
2023-01-11T23:43:40.005Z,6.30
2023-01-11T23:46:21.925Z,6.30
2023-01-11T23:48:49.869Z,6.20
2023-01-11T23:51:19.243Z,6.10
2023-01-11T23:53:47.197Z,6.10
2023-01-11T23:56:16.020Z,5.90
2023-01-11T23:58:44.021Z,5.90
